Medford Lakes Colony Memorial Day 5K Run — Results

Medford Lakes, New Jersey, United States

1st Place

BRIAN QUILTY

Medford Lakes Colony Memorial Day 5K

15:43

2nd Place

MICHAEL WALKER

Medford Lakes Colony Memorial Day 5K

17:32

3rd Place

ROBERT BUZBY

Medford Lakes Colony Memorial Day 5K

17:37

# Bib Name Gender Gender Rank Age Group AG Rank Finish Time Pace
51 32 KYLE DICKINSON Male M40-49 12 24:08 7:47 /mi
52 190 MANDI STETZ Female F30-39 3 24:09 7:48 /mi
53 188 TOM CUSACK Male M40-49 13 24:15 7:50 /mi
54 259 KIM CAMPBELL Female F30-39 4 24:20 7:51 /mi
55 158 TIMOTHY YINGLING Male M30-39 9 24:21 7:52 /mi
56 209 A. LONARDO Male M11-14 6 24:23 7:52 /mi
57 175 CHRISTIAN HECHT Male M19-29 6 24:25 7:53 /mi
58 149 MAUREEN WAGNER Female F40-49 4 24:26 7:53 /mi
59 267 RYAN PEARSON Male M40-49 14 24:27 7:54 /mi
60 3 VINCENT ABATE Male M40-49 15 24:29 7:54 /mi
61 33 MICHAEL DOYLE Male M50-59 8 24:29 7:54 /mi
62 132 MEGAN SMITH Female F30-39 5 24:44 7:59 /mi
63 54 ELLEN GRUESEN Female F30-39 6 24:49 8:01 /mi
64 176 REBEKAH BARNHARDT Female F15-19 2 24:55 8:03 /mi
65 64 RON JACKSON Male M50-59 9 24:56 8:03 /mi
66 122 PATRICK RODIO Male M40-49 16 24:57 8:03 /mi
67 124 MARTIANN SCHENCK Female F40-49 5 24:57 8:03 /mi
68 229 PETER PELLEGRINO Male M50-59 10 25:01 8:04 /mi
69 117 JODIE REDMOND Female F19-29 2 25:07 8:07 /mi
70 206 KRIS RIESS Male M15-19 4 25:10 8:07 /mi
71 207 NOAH RIESS Male M15-19 5 25:10 8:07 /mi
72 30 CADENCE DAVIS Female F11-14 1 25:13 8:08 /mi
73 136 DANIELLE STARN Female F30-39 7 25:21 8:11 /mi
74 110 JONATHAN PANDOLFO Male M30-39 10 25:26 8:13 /mi
75 111 JAMES PANDOLFO Male M30-39 11 25:26 8:13 /mi
76 156 KATE WINTERBOTTOM Female F30-39 8 25:50 8:20 /mi
77 153 ZACHARY WILKOLASKI Male M30-39 12 25:52 8:21 /mi
78 97 ADAM MONDELBLATT Male M30-39 13 25:56 8:22 /mi
79 51 MICHAEL GOWNLEY Male M40-49 17 26:01 8:24 /mi
80 59 BILL HESS Male M60-69 3 26:06 8:25 /mi
81 81 KEITH LITTLE Male M40-49 18 26:29 8:33 /mi
82 248 DEAN MCFADDEN Male M50-59 11 26:32 8:34 /mi
83 4 SHANNON ADAMS Female F30-39 9 26:33 8:34 /mi
84 62 MELISSA HURIN Female F30-39 10 26:34 8:34 /mi
85 129 JESSICA SILVA Female F30-39 11 26:41 8:37 /mi
86 128 KEVIN SILVA Male M30-39 14 26:46 8:38 /mi
87 171 R. FEST Male M11-14 7 27:02 8:44 /mi
88 152 MIKE WELLS Male M50-59 12 27:03 8:44 /mi
89 201 MACGUIRE WOLSON Male M11-14 8 27:05 8:45 /mi
90 203 T. EKATOMATIS Male 27:08 8:45 /mi
91 247 DAVID NASH Male M50-59 13 27:12 8:47 /mi
92 253 JILL CORRIGAN Female F40-49 6 27:14 8:47 /mi
93 162 RACHAEL EDWARDS Female F30-39 12 27:17 8:49 /mi
94 242 ALLAN PELCAK JR Male M50-59 14 27:25 8:51 /mi
95 154 GABRIELLE WILKOLASKI Female F30-39 13 27:25 8:51 /mi
96 243 KATELYNN DEVERY Female F11-14 2 27:33 8:54 /mi
97 25 MICHAEL CONSIDINE Male M50-59 15 27:35 8:54 /mi
98 271 MARIANA SMITH Female F30-39 14 27:37 8:55 /mi
99 226 JEFFREY WIENAND Male M30-39 15 27:39 8:56 /mi
100 43 MARIANNA FOX Female F50-59 2 27:40 8:56 /mi

Showing 51–100 of 245 results